sensor_id;sensor_type;location;lat;lon;timestamp;temperature;humidity
21722;DHT22;11023;48.274;7.794;2023-09-19T00:01:42;17.60;99.90
21722;DHT22;11023;48.274;7.794;2023-09-19T00:04:13;17.70;99.90
21722;DHT22;11023;48.274;7.794;2023-09-19T00:06:40;17.70;99.90
21722;DHT22;11023;48.274;7.794;2023-09-19T00:09:07;17.70;99.90
21722;DHT22;11023;48.274;7.794;2023-09-19T00:11:36;17.70;99.90
21722;DHT22;11023;48.274;7.794;2023-09-19T00:14:03;17.70;99.90
21722;DHT22;11023;48.274;7.794;2023-09-19T00:16:30;17.70;99.90
21722;DHT22;11023;48.274;7.794;2023-09-19T00:19:03;17.70;99.90
21722;DHT22;11023;48.274;7.794;2023-09-19T00:21:31;17.80;99.90
21722;DHT22;11023;48.274;7.794;2023-09-19T00:23:57;17.80;99.90
21722;DHT22;11023;48.274;7.794;2023-09-19T00:26:23;17.80;99.90
21722;DHT22;11023;48.274;7.794;2023-09-19T00:28:52;17.80;99.90
21722;DHT22;11023;48.274;7.794;2023-09-19T00:31:18;17.90;99.90
21722;DHT22;11023;48.274;7.794;2023-09-19T00:33:44;17.80;99.90
21722;DHT22;11023;48.274;7.794;2023-09-19T00:36:10;17.80;99.90
21722;DHT22;11023;48.274;7.794;2023-09-19T00:38:35;17.80;99.90
21722;DHT22;11023;48.274;7.794;2023-09-19T00:41:04;17.80;99.90
21722;DHT22;11023;48.274;7.794;2023-09-19T00:43:35;17.80;99.90
21722;DHT22;11023;48.274;7.794;2023-09-19T00:46:01;17.90;99.90
21722;DHT22;11023;48.274;7.794;2023-09-19T00:48:30;17.90;99.90
21722;DHT22;11023;48.274;7.794;2023-09-19T00:50:59;17.80;99.90
21722;DHT22;11023;48.274;7.794;2023-09-19T00:53:27;17.80;99.90
21722;DHT22;11023;48.274;7.794;2023-09-19T00:55:53;17.80;99.90
21722;DHT22;11023;48.274;7.794;2023-09-19T00:58:21;17.70;99.90
21722;DHT22;11023;48.274;7.794;2023-09-19T01:00:59;17.80;99.90
21722;DHT22;11023;48.274;7.794;2023-09-19T01:03:27;17.80;99.90
21722;DHT22;11023;48.274;7.794;2023-09-19T01:05:53;17.80;99.90
21722;DHT22;11023;48.274;7.794;2023-09-19T01:08:22;17.80;99.90
21722;DHT22;11023;48.274;7.794;2023-09-19T01:11:25;17.70;99.90
21722;DHT22;11023;48.274;7.794;2023-09-19T01:30:46;17.80;99.90
21722;DHT22;11023;48.274;7.794;2023-09-19T01:33:15;17.80;99.90
21722;DHT22;11023;48.274;7.794;2023-09-19T01:35:50;17.80;99.90
21722;DHT22;11023;48.274;7.794;2023-09-19T01:38:19;17.80;99.90
21722;DHT22;11023;48.274;7.794;2023-09-19T01:40:57;17.90;99.90
21722;DHT22;11023;48.274;7.794;2023-09-19T01:43:45;17.90;99.90
21722;DHT22;11023;48.274;7.794;2023-09-19T01:46:19;17.90;99.90
21722;DHT22;11023;48.274;7.794;2023-09-19T01:51:58;17.90;99.90
21722;DHT22;11023;48.274;7.794;2023-09-19T01:54:31;17.90;99.90
21722;DHT22;11023;48.274;7.794;2023-09-19T01:59:45;17.90;99.90
21722;DHT22;11023;48.274;7.794;2023-09-19T02:02:20;17.90;99.90
21722;DHT22;11023;48.274;7.794;2023-09-19T02:04:52;17.90;99.90
21722;DHT22;11023;48.274;7.794;2023-09-19T02:07:20;17.90;99.90
21722;DHT22;11023;48.274;7.794;2023-09-19T02:09:45;17.90;99.90
21722;DHT22;11023;48.274;7.794;2023-09-19T02:12:13;17.90;99.90
21722;DHT22;11023;48.274;7.794;2023-09-19T02:14:41;17.80;99.90
21722;DHT22;11023;48.274;7.794;2023-09-19T02:17:06;17.80;99.90
21722;DHT22;11023;48.274;7.794;2023-09-19T02:19:33;17.70;99.90
21722;DHT22;11023;48.274;7.794;2023-09-19T02:21:59;17.70;99.90
21722;DHT22;11023;48.274;7.794;2023-09-19T02:24:25;17.70;99.90
21722;DHT22;11023;48.274;7.794;2023-09-19T02:26:52;17.70;99.90
21722;DHT22;11023;48.274;7.794;2023-09-19T02:29:18;17.60;99.90
21722;DHT22;11023;48.274;7.794;2023-09-19T02:31:43;17.60;99.90
21722;DHT22;11023;48.274;7.794;2023-09-19T02:34:11;17.60;99.90
21722;DHT22;11023;48.274;7.794;2023-09-19T02:36:37;17.60;99.90
21722;DHT22;11023;48.274;7.794;2023-09-19T02:39:03;17.50;99.90
21722;DHT22;11023;48.274;7.794;2023-09-19T02:41:30;17.50;99.90
21722;DHT22;11023;48.274;7.794;2023-09-19T02:43:58;17.50;99.90
21722;DHT22;11023;48.274;7.794;2023-09-19T02:46:24;17.50;99.90
21722;DHT22;11023;48.274;7.794;2023-09-19T02:48:50;17.50;99.90
21722;DHT22;11023;48.274;7.794;2023-09-19T02:51:15;17.50;99.90
21722;DHT22;11023;48.274;7.794;2023-09-19T02:53:41;17.50;99.90
21722;DHT22;11023;48.274;7.794;2023-09-19T02:56:07;17.50;99.90
21722;DHT22;11023;48.274;7.794;2023-09-19T02:58:35;17.50;99.90
21722;DHT22;11023;48.274;7.794;2023-09-19T03:01:08;17.50;99.90
21722;DHT22;11023;48.274;7.794;2023-09-19T03:03:34;17.50;99.90
21722;DHT22;11023;48.274;7.794;2023-09-19T03:06:00;17.50;99.90
21722;DHT22;11023;48.274;7.794;2023-09-19T03:08:29;17.40;99.90
21722;DHT22;11023;48.274;7.794;2023-09-19T03:10:55;17.40;99.90
21722;DHT22;11023;48.274;7.794;2023-09-19T03:13:20;17.40;99.90
21722;DHT22;11023;48.274;7.794;2023-09-19T03:15:46;17.30;99.90
21722;DHT22;11023;48.274;7.794;2023-09-19T03:18:12;17.30;99.90
21722;DHT22;11023;48.274;7.794;2023-09-19T03:20:38;17.30;99.90
21722;DHT22;11023;48.274;7.794;2023-09-19T03:23:04;17.30;99.90
21722;DHT22;11023;48.274;7.794;2023-09-19T03:25:34;17.30;99.90
21722;DHT22;11023;48.274;7.794;2023-09-19T03:28:01;17.30;99.90
21722;DHT22;11023;48.274;7.794;2023-09-19T03:30:31;17.30;99.90
21722;DHT22;11023;48.274;7.794;2023-09-19T03:32:58;17.30;99.90
21722;DHT22;11023;48.274;7.794;2023-09-19T03:35:23;17.30;99.90
21722;DHT22;11023;48.274;7.794;2023-09-19T03:37:49;17.40;99.90
21722;DHT22;11023;48.274;7.794;2023-09-19T03:40:15;17.30;99.90
21722;DHT22;11023;48.274;7.794;2023-09-19T03:42:41;17.40;99.90
21722;DHT22;11023;48.274;7.794;2023-09-19T03:45:08;17.30;99.90
21722;DHT22;11023;48.274;7.794;2023-09-19T03:47:38;17.40;99.90
21722;DHT22;11023;48.274;7.794;2023-09-19T03:50:05;17.40;99.90
21722;DHT22;11023;48.274;7.794;2023-09-19T03:52:32;17.40;99.90
21722;DHT22;11023;48.274;7.794;2023-09-19T03:54:57;17.40;99.90
21722;DHT22;11023;48.274;7.794;2023-09-19T03:57:23;17.40;99.90
21722;DHT22;11023;48.274;7.794;2023-09-19T03:59:49;17.40;99.90
21722;DHT22;11023;48.274;7.794;2023-09-19T04:02:14;17.40;99.90
21722;DHT22;11023;48.274;7.794;2023-09-19T04:04:48;17.40;99.90
21722;DHT22;11023;48.274;7.794;2023-09-19T04:07:14;17.30;99.90
21722;DHT22;11023;48.274;7.794;2023-09-19T04:09:39;17.30;99.90
21722;DHT22;11023;48.274;7.794;2023-09-19T04:12:05;17.30;99.90
21722;DHT22;11023;48.274;7.794;2023-09-19T04:14:31;17.30;99.90
21722;DHT22;11023;48.274;7.794;2023-09-19T04:16:57;17.30;99.90
21722;DHT22;11023;48.274;7.794;2023-09-19T04:19:22;17.30;99.90
21722;DHT22;11023;48.274;7.794;2023-09-19T04:21:48;17.30;99.90
21722;DHT22;11023;48.274;7.794;2023-09-19T04:24:14;17.30;99.90
21722;DHT22;11023;48.274;7.794;2023-09-19T04:26:39;17.30;99.90
21722;DHT22;11023;48.274;7.794;2023-09-19T04:29:05;17.20;99.90
21722;DHT22;11023;48.274;7.794;2023-09-19T04:31:31;17.20;99.90
21722;DHT22;11023;48.274;7.794;2023-09-19T04:33:57;17.20;99.90
21722;DHT22;11023;48.274;7.794;2023-09-19T04:36:24;17.20;99.90
21722;DHT22;11023;48.274;7.794;2023-09-19T04:38:50;17.10;99.90
21722;DHT22;11023;48.274;7.794;2023-09-19T04:41:16;17.10;99.90
21722;DHT22;11023;48.274;7.794;2023-09-19T04:43:42;17.10;99.90
21722;DHT22;11023;48.274;7.794;2023-09-19T04:46:08;17.10;99.90
21722;DHT22;11023;48.274;7.794;2023-09-19T04:48:34;17.10;99.90
21722;DHT22;11023;48.274;7.794;2023-09-19T04:51:00;17.10;99.90
21722;DHT22;11023;48.274;7.794;2023-09-19T04:53:26;17.20;99.90
21722;DHT22;11023;48.274;7.794;2023-09-19T04:55:53;17.20;99.90
21722;DHT22;11023;48.274;7.794;2023-09-19T04:58:21;17.10;99.90
21722;DHT22;11023;48.274;7.794;2023-09-19T05:00:47;17.20;99.90
21722;DHT22;11023;48.274;7.794;2023-09-19T05:03:12;17.10;99.90
21722;DHT22;11023;48.274;7.794;2023-09-19T05:05:38;17.10;99.90
21722;DHT22;11023;48.274;7.794;2023-09-19T05:08:08;17.20;99.90
21722;DHT22;11023;48.274;7.794;2023-09-19T05:10:35;17.10;99.90
21722;DHT22;11023;48.274;7.794;2023-09-19T05:13:04;17.10;99.90
21722;DHT22;11023;48.274;7.794;2023-09-19T05:15:30;17.10;99.90
21722;DHT22;11023;48.274;7.794;2023-09-19T05:17:56;17.10;99.90
21722;DHT22;11023;48.274;7.794;2023-09-19T05:20:22;17.10;99.90
21722;DHT22;11023;48.274;7.794;2023-09-19T05:22:59;17.10;99.90
21722;DHT22;11023;48.274;7.794;2023-09-19T05:25:30;17.10;99.90
21722;DHT22;11023;48.274;7.794;2023-09-19T05:27:57;17.10;99.90
21722;DHT22;11023;48.274;7.794;2023-09-19T05:30:23;17.10;99.90
21722;DHT22;11023;48.274;7.794;2023-09-19T05:32:49;17.10;99.90
21722;DHT22;11023;48.274;7.794;2023-09-19T05:35:16;17.10;99.90
21722;DHT22;11023;48.274;7.794;2023-09-19T05:37:42;17.20;99.90
21722;DHT22;11023;48.274;7.794;2023-09-19T05:40:08;17.10;99.90
21722;DHT22;11023;48.274;7.794;2023-09-19T05:42:38;17.10;99.90
21722;DHT22;11023;48.274;7.794;2023-09-19T05:45:05;17.20;99.90
21722;DHT22;11023;48.274;7.794;2023-09-19T05:47:32;17.20;99.90
21722;DHT22;11023;48.274;7.794;2023-09-19T05:49:58;17.20;99.90
21722;DHT22;11023;48.274;7.794;2023-09-19T05:52:25;17.20;99.90
21722;DHT22;11023;48.274;7.794;2023-09-19T05:54:50;17.20;99.90
21722;DHT22;11023;48.274;7.794;2023-09-19T05:57:16;17.20;99.90
21722;DHT22;11023;48.274;7.794;2023-09-19T05:59:42;17.20;99.90
21722;DHT22;11023;48.274;7.794;2023-09-19T06:02:08;17.20;99.90
21722;DHT22;11023;48.274;7.794;2023-09-19T06:04:35;17.30;99.90
21722;DHT22;11023;48.274;7.794;2023-09-19T06:07:01;17.30;99.90
21722;DHT22;11023;48.274;7.794;2023-09-19T06:09:28;17.30;99.90
21722;DHT22;11023;48.274;7.794;2023-09-19T06:11:54;17.40;99.90
21722;DHT22;11023;48.274;7.794;2023-09-19T06:14:21;17.40;99.90
21722;DHT22;11023;48.274;7.794;2023-09-19T06:16:49;17.40;99.90
21722;DHT22;11023;48.274;7.794;2023-09-19T06:19:14;17.40;99.90
21722;DHT22;11023;48.274;7.794;2023-09-19T06:21:40;17.40;99.90
21722;DHT22;11023;48.274;7.794;2023-09-19T06:24:06;17.40;99.90
21722;DHT22;11023;48.274;7.794;2023-09-19T06:26:32;17.40;99.90
21722;DHT22;11023;48.274;7.794;2023-09-19T06:28:58;17.40;99.90
21722;DHT22;11023;48.274;7.794;2023-09-19T06:31:25;17.50;99.90
21722;DHT22;11023;48.274;7.794;2023-09-19T06:33:52;17.50;99.90
21722;DHT22;11023;48.274;7.794;2023-09-19T06:36:18;17.50;99.90
21722;DHT22;11023;48.274;7.794;2023-09-19T06:38:44;17.60;99.90
21722;DHT22;11023;48.274;7.794;2023-09-19T06:41:10;17.60;99.90
21722;DHT22;11023;48.274;7.794;2023-09-19T06:43:36;17.70;99.90
21722;DHT22;11023;48.274;7.794;2023-09-19T06:46:02;17.70;99.90
21722;DHT22;11023;48.274;7.794;2023-09-19T06:48:29;17.70;99.90
21722;DHT22;11023;48.274;7.794;2023-09-19T06:50:58;17.80;99.90
21722;DHT22;11023;48.274;7.794;2023-09-19T06:53:24;17.70;99.90
21722;DHT22;11023;48.274;7.794;2023-09-19T06:55:53;17.70;99.90
21722;DHT22;11023;48.274;7.794;2023-09-19T06:58:19;17.70;99.90
21722;DHT22;11023;48.274;7.794;2023-09-19T07:00:45;17.70;99.90
21722;DHT22;11023;48.274;7.794;2023-09-19T07:03:13;17.70;99.90
21722;DHT22;11023;48.274;7.794;2023-09-19T07:05:40;17.70;99.90
21722;DHT22;11023;48.274;7.794;2023-09-19T07:08:07;17.60;99.90
21722;DHT22;11023;48.274;7.794;2023-09-19T07:10:34;17.70;99.90
21722;DHT22;11023;48.274;7.794;2023-09-19T07:13:01;17.70;99.90
21722;DHT22;11023;48.274;7.794;2023-09-19T07:15:27;17.70;99.90
21722;DHT22;11023;48.274;7.794;2023-09-19T07:17:54;17.80;99.90
21722;DHT22;11023;48.274;7.794;2023-09-19T07:20:22;17.90;99.90
21722;DHT22;11023;48.274;7.794;2023-09-19T07:22:51;18.00;99.90
21722;DHT22;11023;48.274;7.794;2023-09-19T07:25:17;18.10;99.90
21722;DHT22;11023;48.274;7.794;2023-09-19T07:27:43;18.10;99.90
21722;DHT22;11023;48.274;7.794;2023-09-19T07:30:10;18.20;99.90
21722;DHT22;11023;48.274;7.794;2023-09-19T07:32:37;18.30;99.90
21722;DHT22;11023;48.274;7.794;2023-09-19T07:35:04;18.40;99.90
21722;DHT22;11023;48.274;7.794;2023-09-19T07:37:31;18.50;99.90
21722;DHT22;11023;48.274;7.794;2023-09-19T07:40:05;18.60;99.90
21722;DHT22;11023;48.274;7.794;2023-09-19T07:42:37;18.60;99.90
21722;DHT22;11023;48.274;7.794;2023-09-19T07:45:06;18.80;99.90
21722;DHT22;11023;48.274;7.794;2023-09-19T07:47:33;18.80;99.90
21722;DHT22;11023;48.274;7.794;2023-09-19T07:50:00;18.90;99.90
21722;DHT22;11023;48.274;7.794;2023-09-19T07:52:28;19.00;99.90
21722;DHT22;11023;48.274;7.794;2023-09-19T07:54:54;19.00;99.90
21722;DHT22;11023;48.274;7.794;2023-09-19T07:57:20;19.10;99.90
21722;DHT22;11023;48.274;7.794;2023-09-19T07:59:46;19.10;99.90
21722;DHT22;11023;48.274;7.794;2023-09-19T08:02:11;19.20;99.90
21722;DHT22;11023;48.274;7.794;2023-09-19T08:04:46;19.30;99.90
21722;DHT22;11023;48.274;7.794;2023-09-19T08:07:12;19.30;99.90
21722;DHT22;11023;48.274;7.794;2023-09-19T08:09:41;19.40;99.90
21722;DHT22;11023;48.274;7.794;2023-09-19T08:12:11;19.40;99.90
21722;DHT22;11023;48.274;7.794;2023-09-19T08:14:37;19.60;99.90
21722;DHT22;11023;48.274;7.794;2023-09-19T08:17:03;19.60;99.90
21722;DHT22;11023;48.274;7.794;2023-09-19T08:19:33;19.70;99.90
21722;DHT22;11023;48.274;7.794;2023-09-19T08:21:59;19.80;99.90
21722;DHT22;11023;48.274;7.794;2023-09-19T08:24:26;19.90;99.90
21722;DHT22;11023;48.274;7.794;2023-09-19T08:26:55;20.00;99.90
21722;DHT22;11023;48.274;7.794;2023-09-19T08:29:22;20.10;99.90
21722;DHT22;11023;48.274;7.794;2023-09-19T08:31:54;20.10;99.90
21722;DHT22;11023;48.274;7.794;2023-09-19T08:34:19;20.20;99.90
21722;DHT22;11023;48.274;7.794;2023-09-19T08:36:46;20.20;99.90
21722;DHT22;11023;48.274;7.794;2023-09-19T08:39:13;20.30;99.90
21722;DHT22;11023;48.274;7.794;2023-09-19T08:41:40;20.30;99.90
21722;DHT22;11023;48.274;7.794;2023-09-19T08:44:05;20.30;99.90
21722;DHT22;11023;48.274;7.794;2023-09-19T08:46:34;20.30;99.90
21722;DHT22;11023;48.274;7.794;2023-09-19T08:49:05;20.40;99.90
21722;DHT22;11023;48.274;7.794;2023-09-19T08:51:43;20.40;99.90
21722;DHT22;11023;48.274;7.794;2023-09-19T08:54:28;20.40;99.90
21722;DHT22;11023;48.274;7.794;2023-09-19T08:56:56;20.50;99.90
21722;DHT22;11023;48.274;7.794;2023-09-19T08:59:24;20.60;99.90
21722;DHT22;11023;48.274;7.794;2023-09-19T09:01:51;20.70;99.90
21722;DHT22;11023;48.274;7.794;2023-09-19T09:04:19;20.70;99.90
21722;DHT22;11023;48.274;7.794;2023-09-19T09:06:46;20.80;99.90
21722;DHT22;11023;48.274;7.794;2023-09-19T09:09:18;20.80;99.90
21722;DHT22;11023;48.274;7.794;2023-09-19T09:11:45;20.90;99.90
21722;DHT22;11023;48.274;7.794;2023-09-19T09:14:14;21.00;99.90
21722;DHT22;11023;48.274;7.794;2023-09-19T09:16:39;21.10;99.90
21722;DHT22;11023;48.274;7.794;2023-09-19T09:19:05;21.10;99.90
21722;DHT22;11023;48.274;7.794;2023-09-19T09:21:31;21.30;99.90
21722;DHT22;11023;48.274;7.794;2023-09-19T09:24:27;21.40;99.90
21722;DHT22;11023;48.274;7.794;2023-09-19T09:26:55;21.60;99.90
21722;DHT22;11023;48.274;7.794;2023-09-19T09:29:47;21.70;99.90
21722;DHT22;11023;48.274;7.794;2023-09-19T09:34:51;21.80;99.90
21722;DHT22;11023;48.274;7.794;2023-09-19T09:37:21;22.00;99.90
21722;DHT22;11023;48.274;7.794;2023-09-19T09:39:59;22.10;99.90
21722;DHT22;11023;48.274;7.794;2023-09-19T09:42:40;22.20;99.90
21722;DHT22;11023;48.274;7.794;2023-09-19T09:45:23;22.20;99.90
21722;DHT22;11023;48.274;7.794;2023-09-19T09:48:03;22.20;99.90
21722;DHT22;11023;48.274;7.794;2023-09-19T09:50:34;22.30;99.90
21722;DHT22;11023;48.274;7.794;2023-09-19T09:53:26;22.30;99.90
21722;DHT22;11023;48.274;7.794;2023-09-19T09:56:09;22.30;99.90
21722;DHT22;11023;48.274;7.794;2023-09-19T09:58:36;22.20;99.90
21722;DHT22;11023;48.274;7.794;2023-09-19T10:01:04;22.10;99.90
21722;DHT22;11023;48.274;7.794;2023-09-19T10:06:10;21.80;99.90
21722;DHT22;11023;48.274;7.794;2023-09-19T10:09:08;21.80;99.90
21722;DHT22;11023;48.274;7.794;2023-09-19T10:12:03;21.80;99.90
21722;DHT22;11023;48.274;7.794;2023-09-19T10:14:30;22.00;99.90
21722;DHT22;11023;48.274;7.794;2023-09-19T10:17:05;22.10;99.90
21722;DHT22;11023;48.274;7.794;2023-09-19T10:19:56;22.10;99.90
21722;DHT22;11023;48.274;7.794;2023-09-19T10:22:26;22.20;99.90
21722;DHT22;11023;48.274;7.794;2023-09-19T10:24:53;22.20;99.90
21722;DHT22;11023;48.274;7.794;2023-09-19T10:27:21;22.20;99.90
21722;DHT22;11023;48.274;7.794;2023-09-19T10:29:49;22.30;99.90
21722;DHT22;11023;48.274;7.794;2023-09-19T10:32:19;22.30;99.90
21722;DHT22;11023;48.274;7.794;2023-09-19T10:34:49;22.30;99.90
21722;DHT22;11023;48.274;7.794;2023-09-19T10:37:16;22.30;99.90
21722;DHT22;11023;48.274;7.794;2023-09-19T10:39:46;22.40;99.90
21722;DHT22;11023;48.274;7.794;2023-09-19T10:42:19;22.50;99.90
21722;DHT22;11023;48.274;7.794;2023-09-19T10:44:47;22.60;99.90
21722;DHT22;11023;48.274;7.794;2023-09-19T10:47:19;22.80;99.90
21722;DHT22;11023;48.274;7.794;2023-09-19T10:49:46;23.00;99.90
21722;DHT22;11023;48.274;7.794;2023-09-19T10:52:14;23.10;99.90
21722;DHT22;11023;48.274;7.794;2023-09-19T10:54:47;23.40;99.90
21722;DHT22;11023;48.274;7.794;2023-09-19T10:57:23;23.40;99.90
21722;DHT22;11023;48.274;7.794;2023-09-19T11:00:07;23.40;99.90
21722;DHT22;11023;48.274;7.794;2023-09-19T11:06:04;23.30;99.90
21722;DHT22;11023;48.274;7.794;2023-09-19T11:30:36;24.40;99.90
21722;DHT22;11023;48.274;7.794;2023-09-19T11:33:22;24.50;99.90
21722;DHT22;11023;48.274;7.794;2023-09-19T11:46:26;25.10;99.90
21722;DHT22;11023;48.274;7.794;2023-09-19T11:48:54;24.90;99.90
21722;DHT22;11023;48.274;7.794;2023-09-19T11:51:20;24.80;99.90
21722;DHT22;11023;48.274;7.794;2023-09-19T11:53:52;24.70;99.90
21722;DHT22;11023;48.274;7.794;2023-09-19T11:56:20;24.70;99.90
21722;DHT22;11023;48.274;7.794;2023-09-19T11:58:53;24.60;99.90
21722;DHT22;11023;48.274;7.794;2023-09-19T12:01:24;24.50;99.90
21722;DHT22;11023;48.274;7.794;2023-09-19T12:03:56;24.60;99.90
21722;DHT22;11023;48.274;7.794;2023-09-19T12:06:24;24.50;99.90
21722;DHT22;11023;48.274;7.794;2023-09-19T12:08:50;24.50;99.90
21722;DHT22;11023;48.274;7.794;2023-09-19T12:11:19;24.50;99.90
21722;DHT22;11023;48.274;7.794;2023-09-19T12:13:47;24.40;99.90
21722;DHT22;11023;48.274;7.794;2023-09-19T12:16:19;24.30;99.90
21722;DHT22;11023;48.274;7.794;2023-09-19T12:18:48;24.30;99.90
21722;DHT22;11023;48.274;7.794;2023-09-19T12:21:22;24.30;99.90
21722;DHT22;11023;48.274;7.794;2023-09-19T12:26:24;24.30;99.90
21722;DHT22;11023;48.274;7.794;2023-09-19T12:28:49;24.50;99.90
21722;DHT22;11023;48.274;7.794;2023-09-19T12:31:18;24.70;99.90
21722;DHT22;11023;48.274;7.794;2023-09-19T12:33:45;24.80;99.90
21722;DHT22;11023;48.274;7.794;2023-09-19T12:36:21;24.90;99.90
21722;DHT22;11023;48.274;7.794;2023-09-19T12:38:54;25.00;99.90
21722;DHT22;11023;48.274;7.794;2023-09-19T12:41:20;25.10;99.90
21722;DHT22;11023;48.274;7.794;2023-09-19T12:43:47;25.20;99.90
21722;DHT22;11023;48.274;7.794;2023-09-19T12:46:13;25.40;99.90
21722;DHT22;11023;48.274;7.794;2023-09-19T12:48:40;25.50;99.90
21722;DHT22;11023;48.274;7.794;2023-09-19T12:51:11;25.60;99.90
21722;DHT22;11023;48.274;7.794;2023-09-19T12:53:45;25.80;99.90
21722;DHT22;11023;48.274;7.794;2023-09-19T12:56:17;25.90;99.90
21722;DHT22;11023;48.274;7.794;2023-09-19T12:58:53;26.00;99.90
21722;DHT22;11023;48.274;7.794;2023-09-19T13:01:20;25.90;99.90
21722;DHT22;11023;48.274;7.794;2023-09-19T13:03:45;25.70;99.90
21722;DHT22;11023;48.274;7.794;2023-09-19T13:06:11;25.80;99.90
21722;DHT22;11023;48.274;7.794;2023-09-19T13:08:39;26.00;99.90
21722;DHT22;11023;48.274;7.794;2023-09-19T13:11:11;26.20;99.90
21722;DHT22;11023;48.274;7.794;2023-09-19T13:13:48;26.40;99.90
21722;DHT22;11023;48.274;7.794;2023-09-19T13:16:15;26.60;99.90
21722;DHT22;11023;48.274;7.794;2023-09-19T13:18:47;26.60;99.90
21722;DHT22;11023;48.274;7.794;2023-09-19T13:21:14;26.80;99.90
21722;DHT22;11023;48.274;7.794;2023-09-19T13:23:54;26.90;99.90
21722;DHT22;11023;48.274;7.794;2023-09-19T13:26:25;27.00;99.90
21722;DHT22;11023;48.274;7.794;2023-09-19T13:28:51;27.00;99.90
21722;DHT22;11023;48.274;7.794;2023-09-19T13:31:17;27.00;99.90
21722;DHT22;11023;48.274;7.794;2023-09-19T13:33:48;27.10;99.90
21722;DHT22;11023;48.274;7.794;2023-09-19T13:36:14;27.00;99.90
21722;DHT22;11023;48.274;7.794;2023-09-19T13:38:43;27.10;99.90
21722;DHT22;11023;48.274;7.794;2023-09-19T13:41:12;27.10;99.90
21722;DHT22;11023;48.274;7.794;2023-09-19T13:43:39;27.20;99.90
21722;DHT22;11023;48.274;7.794;2023-09-19T13:46:05;27.40;99.90
21722;DHT22;11023;48.274;7.794;2023-09-19T13:48:33;27.50;99.90
21722;DHT22;11023;48.274;7.794;2023-09-19T13:51:02;27.70;99.90
21722;DHT22;11023;48.274;7.794;2023-09-19T13:53:28;27.80;99.90
21722;DHT22;11023;48.274;7.794;2023-09-19T13:55:54;28.00;99.90
21722;DHT22;11023;48.274;7.794;2023-09-19T13:58:19;28.00;99.90
21722;DHT22;11023;48.274;7.794;2023-09-19T14:00:46;28.00;99.90
21722;DHT22;11023;48.274;7.794;2023-09-19T14:03:12;28.10;99.90
21722;DHT22;11023;48.274;7.794;2023-09-19T14:05:38;28.20;99.90
21722;DHT22;11023;48.274;7.794;2023-09-19T14:08:04;28.00;99.90
21722;DHT22;11023;48.274;7.794;2023-09-19T14:10:30;27.90;99.90
21722;DHT22;11023;48.274;7.794;2023-09-19T14:12:57;27.90;99.90
21722;DHT22;11023;48.274;7.794;2023-09-19T14:15:27;27.90;99.90
21722;DHT22;11023;48.274;7.794;2023-09-19T14:17:57;27.90;99.90
21722;DHT22;11023;48.274;7.794;2023-09-19T14:20:22;28.10;99.90
21722;DHT22;11023;48.274;7.794;2023-09-19T14:22:48;28.20;99.90
21722;DHT22;11023;48.274;7.794;2023-09-19T14:25:14;28.30;99.90
21722;DHT22;11023;48.274;7.794;2023-09-19T14:27:40;28.30;99.90
21722;DHT22;11023;48.274;7.794;2023-09-19T14:30:07;28.30;99.90
21722;DHT22;11023;48.274;7.794;2023-09-19T14:32:33;28.30;99.90
21722;DHT22;11023;48.274;7.794;2023-09-19T14:34:59;28.40;99.90
21722;DHT22;11023;48.274;7.794;2023-09-19T14:37:24;28.50;99.90
21722;DHT22;11023;48.274;7.794;2023-09-19T14:39:50;28.50;99.90
21722;DHT22;11023;48.274;7.794;2023-09-19T14:42:16;28.50;99.90
21722;DHT22;11023;48.274;7.794;2023-09-19T14:44:43;28.50;99.90
21722;DHT22;11023;48.274;7.794;2023-09-19T14:47:09;28.50;99.90
21722;DHT22;11023;48.274;7.794;2023-09-19T14:49:35;28.40;99.90
21722;DHT22;11023;48.274;7.794;2023-09-19T14:52:06;28.30;99.90
21722;DHT22;11023;48.274;7.794;2023-09-19T14:54:32;28.30;99.90
21722;DHT22;11023;48.274;7.794;2023-09-19T14:56:59;28.20;99.90
21722;DHT22;11023;48.274;7.794;2023-09-19T14:59:33;28.00;99.90
21722;DHT22;11023;48.274;7.794;2023-09-19T15:02:05;28.00;99.90
21722;DHT22;11023;48.274;7.794;2023-09-19T15:04:31;28.00;99.90
21722;DHT22;11023;48.274;7.794;2023-09-19T15:06:58;28.10;99.90
21722;DHT22;11023;48.274;7.794;2023-09-19T15:09:24;28.50;99.90
21722;DHT22;11023;48.274;7.794;2023-09-19T15:11:55;28.60;99.90
21722;DHT22;11023;48.274;7.794;2023-09-19T15:14:21;28.60;99.90
21722;DHT22;11023;48.274;7.794;2023-09-19T15:16:47;28.50;99.90
21722;DHT22;11023;48.274;7.794;2023-09-19T15:19:14;28.20;99.90
21722;DHT22;11023;48.274;7.794;2023-09-19T15:21:40;27.90;99.90
21722;DHT22;11023;48.274;7.794;2023-09-19T15:24:06;27.60;99.90
21722;DHT22;11023;48.274;7.794;2023-09-19T15:26:35;27.30;99.90
21722;DHT22;11023;48.274;7.794;2023-09-19T15:29:07;27.10;99.90
21722;DHT22;11023;48.274;7.794;2023-09-19T15:31:33;27.00;99.90
21722;DHT22;11023;48.274;7.794;2023-09-19T15:34:02;26.90;99.90
21722;DHT22;11023;48.274;7.794;2023-09-19T15:36:27;27.10;99.90
21722;DHT22;11023;48.274;7.794;2023-09-19T15:39:02;27.00;99.90
21722;DHT22;11023;48.274;7.794;2023-09-19T15:41:33;27.00;99.90
21722;DHT22;11023;48.274;7.794;2023-09-19T15:44:00;26.90;99.90
21722;DHT22;11023;48.274;7.794;2023-09-19T15:46:27;26.80;99.90
21722;DHT22;11023;48.274;7.794;2023-09-19T15:48:55;26.70;99.90
21722;DHT22;11023;48.274;7.794;2023-09-19T15:51:20;26.80;99.90
21722;DHT22;11023;48.274;7.794;2023-09-19T15:53:48;27.00;99.90
21722;DHT22;11023;48.274;7.794;2023-09-19T15:56:14;27.20;99.90
21722;DHT22;11023;48.274;7.794;2023-09-19T15:58:44;27.30;99.90
21722;DHT22;11023;48.274;7.794;2023-09-19T16:01:10;27.30;99.90
21722;DHT22;11023;48.274;7.794;2023-09-19T16:03:42;27.30;99.90
21722;DHT22;11023;48.274;7.794;2023-09-19T16:06:13;27.30;99.90
21722;DHT22;11023;48.274;7.794;2023-09-19T16:08:43;27.40;99.90
21722;DHT22;11023;48.274;7.794;2023-09-19T16:11:09;27.50;99.90
21722;DHT22;11023;48.274;7.794;2023-09-19T16:13:40;27.60;99.90
21722;DHT22;11023;48.274;7.794;2023-09-19T16:16:09;27.70;99.90
21722;DHT22;11023;48.274;7.794;2023-09-19T16:18:53;27.80;99.90
21722;DHT22;11023;48.274;7.794;2023-09-19T16:21:24;27.80;99.90
21722;DHT22;11023;48.274;7.794;2023-09-19T16:23:52;27.80;99.90
21722;DHT22;11023;48.274;7.794;2023-09-19T16:26:21;27.70;99.90
21722;DHT22;11023;48.274;7.794;2023-09-19T16:28:50;27.60;99.90
21722;DHT22;11023;48.274;7.794;2023-09-19T16:31:17;27.40;99.90
21722;DHT22;11023;48.274;7.794;2023-09-19T16:33:45;27.20;99.90
21722;DHT22;11023;48.274;7.794;2023-09-19T16:36:13;27.10;99.90
21722;DHT22;11023;48.274;7.794;2023-09-19T16:38:39;26.90;99.90
21722;DHT22;11023;48.274;7.794;2023-09-19T16:41:06;26.70;99.90
21722;DHT22;11023;48.274;7.794;2023-09-19T16:43:32;26.50;99.90
21722;DHT22;11023;48.274;7.794;2023-09-19T16:46:08;26.30;99.90